sensor_id;sensor_type;location;lat;lon;timestamp;temperature;humidity
52103;DHT22;38101;53.126;6.878;2023-04-01T00:00:48;11.00;99.90
52103;DHT22;38101;53.126;6.878;2023-04-01T00:03:14;11.00;99.90
52103;DHT22;38101;53.126;6.878;2023-04-01T00:05:40;11.00;99.90
52103;DHT22;38101;53.126;6.878;2023-04-01T00:08:06;11.00;99.90
52103;DHT22;38101;53.126;6.878;2023-04-01T00:10:31;11.00;99.90
52103;DHT22;38101;53.126;6.878;2023-04-01T00:12:57;11.00;99.90
52103;DHT22;38101;53.126;6.878;2023-04-01T00:15:23;11.00;99.90
52103;DHT22;38101;53.126;6.878;2023-04-01T00:17:48;11.00;99.90
52103;DHT22;38101;53.126;6.878;2023-04-01T00:20:15;11.00;99.90
52103;DHT22;38101;53.126;6.878;2023-04-01T00:22:41;11.00;99.90
52103;DHT22;38101;53.126;6.878;2023-04-01T00:25:07;11.00;99.90
52103;DHT22;38101;53.126;6.878;2023-04-01T00:27:32;11.00;99.90
52103;DHT22;38101;53.126;6.878;2023-04-01T00:29:58;11.00;99.90
52103;DHT22;38101;53.126;6.878;2023-04-01T00:32:24;11.00;99.90
52103;DHT22;38101;53.126;6.878;2023-04-01T00:34:51;10.90;99.90
52103;DHT22;38101;53.126;6.878;2023-04-01T00:37:18;11.00;99.90
52103;DHT22;38101;53.126;6.878;2023-04-01T00:39:44;11.00;99.90
52103;DHT22;38101;53.126;6.878;2023-04-01T00:42:10;10.90;99.90
52103;DHT22;38101;53.126;6.878;2023-04-01T00:44:37;10.90;99.90
52103;DHT22;38101;53.126;6.878;2023-04-01T00:47:03;10.90;99.90
52103;DHT22;38101;53.126;6.878;2023-04-01T00:49:37;10.90;99.90
52103;DHT22;38101;53.126;6.878;2023-04-01T00:52:05;10.90;99.90
52103;DHT22;38101;53.126;6.878;2023-04-01T00:54:33;10.90;99.90
52103;DHT22;38101;53.126;6.878;2023-04-01T00:57:04;10.90;99.90
52103;DHT22;38101;53.126;6.878;2023-04-01T00:59:37;10.90;99.90
52103;DHT22;38101;53.126;6.878;2023-04-01T01:02:05;10.90;99.90
52103;DHT22;38101;53.126;6.878;2023-04-01T01:04:34;10.90;99.90
52103;DHT22;38101;53.126;6.878;2023-04-01T01:12:20;10.90;99.90
52103;DHT22;38101;53.126;6.878;2023-04-01T01:18:03;10.90;99.90
52103;DHT22;38101;53.126;6.878;2023-04-01T01:32:07;10.80;99.90
52103;DHT22;38101;53.126;6.878;2023-04-01T01:34:53;10.80;99.90
52103;DHT22;38101;53.126;6.878;2023-04-01T01:37:23;10.80;99.90
52103;DHT22;38101;53.126;6.878;2023-04-01T01:39:58;10.70;99.90
52103;DHT22;38101;53.126;6.878;2023-04-01T01:42:26;10.80;99.90
52103;DHT22;38101;53.126;6.878;2023-04-01T01:44:55;10.70;99.90
52103;DHT22;38101;53.126;6.878;2023-04-01T01:47:22;10.70;99.90
52103;DHT22;38101;53.126;6.878;2023-04-01T01:49:49;10.70;99.90
52103;DHT22;38101;53.126;6.878;2023-04-01T01:52:16;10.70;99.90
52103;DHT22;38101;53.126;6.878;2023-04-01T01:54:54;10.70;99.90
52103;DHT22;38101;53.126;6.878;2023-04-01T01:57:24;10.70;99.90
52103;DHT22;38101;53.126;6.878;2023-04-01T01:59:56;10.70;99.90
52103;DHT22;38101;53.126;6.878;2023-04-01T02:02:25;10.70;99.90
52103;DHT22;38101;53.126;6.878;2023-04-01T02:04:51;10.60;99.90
52103;DHT22;38101;53.126;6.878;2023-04-01T02:07:24;10.60;99.90
52103;DHT22;38101;53.126;6.878;2023-04-01T02:09:51;10.60;99.90
52103;DHT22;38101;53.126;6.878;2023-04-01T02:12:19;10.60;99.90
52103;DHT22;38101;53.126;6.878;2023-04-01T02:15:12;10.60;99.90
52103;DHT22;38101;53.126;6.878;2023-04-01T02:17:45;10.60;99.90
52103;DHT22;38101;53.126;6.878;2023-04-01T02:20:20;10.60;99.90
52103;DHT22;38101;53.126;6.878;2023-04-01T02:22:52;10.60;99.90
52103;DHT22;38101;53.126;6.878;2023-04-01T02:25:25;10.60;99.90
52103;DHT22;38101;53.126;6.878;2023-04-01T02:27:53;10.60;99.90
52103;DHT22;38101;53.126;6.878;2023-04-01T02:30:20;10.50;99.90
52103;DHT22;38101;53.126;6.878;2023-04-01T02:32:46;10.60;99.90
52103;DHT22;38101;53.126;6.878;2023-04-01T02:35:16;10.60;99.90
52103;DHT22;38101;53.126;6.878;2023-04-01T02:37:43;10.50;99.90
52103;DHT22;38101;53.126;6.878;2023-04-01T02:40:14;10.60;99.90
52103;DHT22;38101;53.126;6.878;2023-04-01T02:42:40;10.60;99.90
52103;DHT22;38101;53.126;6.878;2023-04-01T02:45:06;10.50;99.90
52103;DHT22;38101;53.126;6.878;2023-04-01T02:47:32;10.60;99.90
52103;DHT22;38101;53.126;6.878;2023-04-01T02:49:58;10.60;99.90
52103;DHT22;38101;53.126;6.878;2023-04-01T02:52:28;10.60;99.90
52103;DHT22;38101;53.126;6.878;2023-04-01T02:54:54;10.50;99.90
52103;DHT22;38101;53.126;6.878;2023-04-01T02:57:20;10.50;99.90
52103;DHT22;38101;53.126;6.878;2023-04-01T02:59:46;10.60;99.90
52103;DHT22;38101;53.126;6.878;2023-04-01T03:02:12;10.60;99.90
52103;DHT22;38101;53.126;6.878;2023-04-01T03:04:38;10.60;99.90
52103;DHT22;38101;53.126;6.878;2023-04-01T03:07:04;10.60;99.90
52103;DHT22;38101;53.126;6.878;2023-04-01T03:09:29;10.60;99.90
52103;DHT22;38101;53.126;6.878;2023-04-01T03:11:55;10.60;99.90
52103;DHT22;38101;53.126;6.878;2023-04-01T03:14:21;10.60;99.90
52103;DHT22;38101;53.126;6.878;2023-04-01T03:16:47;10.60;99.90
52103;DHT22;38101;53.126;6.878;2023-04-01T03:19:12;10.60;99.90
52103;DHT22;38101;53.126;6.878;2023-04-01T03:21:38;10.60;99.90
52103;DHT22;38101;53.126;6.878;2023-04-01T03:24:05;10.60;99.90
52103;DHT22;38101;53.126;6.878;2023-04-01T03:26:31;10.60;99.90
52103;DHT22;38101;53.126;6.878;2023-04-01T03:28:57;10.60;99.90
52103;DHT22;38101;53.126;6.878;2023-04-01T03:31:23;10.60;99.90
52103;DHT22;38101;53.126;6.878;2023-04-01T03:33:50;10.60;99.90
52103;DHT22;38101;53.126;6.878;2023-04-01T03:36:16;10.60;99.90
52103;DHT22;38101;53.126;6.878;2023-04-01T03:38:43;10.60;99.90
52103;DHT22;38101;53.126;6.878;2023-04-01T03:41:16;10.60;99.90
52103;DHT22;38101;53.126;6.878;2023-04-01T03:43:42;10.60;99.90
52103;DHT22;38101;53.126;6.878;2023-04-01T03:46:08;10.60;99.90
52103;DHT22;38101;53.126;6.878;2023-04-01T03:48:33;10.60;99.90
52103;DHT22;38101;53.126;6.878;2023-04-01T03:50:59;10.60;99.90
52103;DHT22;38101;53.126;6.878;2023-04-01T03:53:25;10.60;99.90
52103;DHT22;38101;53.126;6.878;2023-04-01T03:55:52;10.60;99.90
52103;DHT22;38101;53.126;6.878;2023-04-01T03:58:18;10.60;99.90
52103;DHT22;38101;53.126;6.878;2023-04-01T04:00:44;10.60;99.90
52103;DHT22;38101;53.126;6.878;2023-04-01T04:03:09;10.60;99.90
52103;DHT22;38101;53.126;6.878;2023-04-01T04:05:35;10.60;99.90
52103;DHT22;38101;53.126;6.878;2023-04-01T04:08:01;10.60;99.90
52103;DHT22;38101;53.126;6.878;2023-04-01T04:10:27;10.60;99.90
52103;DHT22;38101;53.126;6.878;2023-04-01T04:12:55;10.60;99.90
52103;DHT22;38101;53.126;6.878;2023-04-01T04:15:21;10.60;99.90
52103;DHT22;38101;53.126;6.878;2023-04-01T04:17:47;10.60;99.90
52103;DHT22;38101;53.126;6.878;2023-04-01T04:20:14;10.60;99.90
52103;DHT22;38101;53.126;6.878;2023-04-01T04:22:39;10.60;99.90
52103;DHT22;38101;53.126;6.878;2023-04-01T04:25:05;10.60;99.90
52103;DHT22;38101;53.126;6.878;2023-04-01T04:27:31;10.60;99.90
52103;DHT22;38101;53.126;6.878;2023-04-01T04:29:57;10.50;99.90
52103;DHT22;38101;53.126;6.878;2023-04-01T04:32:23;10.60;99.90
52103;DHT22;38101;53.126;6.878;2023-04-01T04:34:48;10.50;99.90
52103;DHT22;38101;53.126;6.878;2023-04-01T04:37:14;10.50;99.90
52103;DHT22;38101;53.126;6.878;2023-04-01T04:39:40;10.50;99.90
52103;DHT22;38101;53.126;6.878;2023-04-01T04:42:05;10.60;99.90
52103;DHT22;38101;53.126;6.878;2023-04-01T04:44:31;10.50;99.90
52103;DHT22;38101;53.126;6.878;2023-04-01T04:46:57;10.60;99.90
52103;DHT22;38101;53.126;6.878;2023-04-01T04:49:22;10.50;99.90
52103;DHT22;38101;53.126;6.878;2023-04-01T04:51:48;10.50;99.90
52103;DHT22;38101;53.126;6.878;2023-04-01T04:54:14;10.50;99.90
52103;DHT22;38101;53.126;6.878;2023-04-01T04:56:39;10.50;99.90
52103;DHT22;38101;53.126;6.878;2023-04-01T04:59:05;10.50;99.90
52103;DHT22;38101;53.126;6.878;2023-04-01T05:01:31;10.50;99.90
52103;DHT22;38101;53.126;6.878;2023-04-01T05:03:59;10.50;99.90
52103;DHT22;38101;53.126;6.878;2023-04-01T05:06:25;10.50;99.90
52103;DHT22;38101;53.126;6.878;2023-04-01T05:08:51;10.50;99.90
52103;DHT22;38101;53.126;6.878;2023-04-01T05:11:19;10.50;99.90
52103;DHT22;38101;53.126;6.878;2023-04-01T05:13:46;10.50;99.90
52103;DHT22;38101;53.126;6.878;2023-04-01T05:16:15;10.50;99.90
52103;DHT22;38101;53.126;6.878;2023-04-01T05:18:41;10.50;99.90
52103;DHT22;38101;53.126;6.878;2023-04-01T05:21:08;10.50;99.90
52103;DHT22;38101;53.126;6.878;2023-04-01T05:23:34;10.50;99.90
52103;DHT22;38101;53.126;6.878;2023-04-01T05:26:05;10.50;99.90
52103;DHT22;38101;53.126;6.878;2023-04-01T05:28:31;10.50;99.90
52103;DHT22;38101;53.126;6.878;2023-04-01T05:30:59;10.50;99.90
52103;DHT22;38101;53.126;6.878;2023-04-01T05:33:25;10.50;99.90
52103;DHT22;38101;53.126;6.878;2023-04-01T05:35:51;10.40;99.90
52103;DHT22;38101;53.126;6.878;2023-04-01T05:38:16;10.40;99.90
52103;DHT22;38101;53.126;6.878;2023-04-01T05:40:42;10.40;99.90
52103;DHT22;38101;53.126;6.878;2023-04-01T05:43:08;10.40;99.90
52103;DHT22;38101;53.126;6.878;2023-04-01T05:45:34;10.50;99.90
52103;DHT22;38101;53.126;6.878;2023-04-01T05:48:00;10.50;99.90
52103;DHT22;38101;53.126;6.878;2023-04-01T05:50:25;10.50;99.90
52103;DHT22;38101;53.126;6.878;2023-04-01T05:52:52;10.50;99.90
52103;DHT22;38101;53.126;6.878;2023-04-01T05:55:17;10.50;99.90
52103;DHT22;38101;53.126;6.878;2023-04-01T05:57:45;10.50;99.90
52103;DHT22;38101;53.126;6.878;2023-04-01T06:00:12;10.50;99.90
52103;DHT22;38101;53.126;6.878;2023-04-01T06:02:38;10.50;99.90
52103;DHT22;38101;53.126;6.878;2023-04-01T06:05:12;10.50;99.90
52103;DHT22;38101;53.126;6.878;2023-04-01T06:07:38;10.50;99.90
52103;DHT22;38101;53.126;6.878;2023-04-01T06:10:12;10.50;99.90
52103;DHT22;38101;53.126;6.878;2023-04-01T06:15:31;10.50;99.90
52103;DHT22;38101;53.126;6.878;2023-04-01T06:21:07;10.60;99.90
52103;DHT22;38101;53.126;6.878;2023-04-01T06:27:03;10.60;99.90
52103;DHT22;38101;53.126;6.878;2023-04-01T06:29:44;10.60;99.90
52103;DHT22;38101;53.126;6.878;2023-04-01T06:35:02;10.60;99.90
52103;DHT22;38101;53.126;6.878;2023-04-01T06:45:42;10.60;99.90
52103;DHT22;38101;53.126;6.878;2023-04-01T06:56:34;10.70;99.90
52103;DHT22;38101;53.126;6.878;2023-04-01T06:59:07;10.70;99.90
52103;DHT22;38101;53.126;6.878;2023-04-01T07:01:39;10.70;99.90
52103;DHT22;38101;53.126;6.878;2023-04-01T07:07:31;10.70;99.90
52103;DHT22;38101;53.126;6.878;2023-04-01T07:09:59;10.70;99.90
52103;DHT22;38101;53.126;6.878;2023-04-01T07:12:31;10.80;99.90
52103;DHT22;38101;53.126;6.878;2023-04-01T07:15:09;10.80;99.90
52103;DHT22;38101;53.126;6.878;2023-04-01T07:17:39;10.80;99.90
52103;DHT22;38101;53.126;6.878;2023-04-01T07:20:20;10.80;99.90
52103;DHT22;38101;53.126;6.878;2023-04-01T07:22:54;10.80;99.90
52103;DHT22;38101;53.126;6.878;2023-04-01T07:25:33;10.90;99.90
52103;DHT22;38101;53.126;6.878;2023-04-01T07:28:11;10.90;99.90
52103;DHT22;38101;53.126;6.878;2023-04-01T07:36:53;11.10;99.90
52103;DHT22;38101;53.126;6.878;2023-04-01T07:39:25;11.10;99.90
52103;DHT22;38101;53.126;6.878;2023-04-01T07:50:35;11.20;99.90
52103;DHT22;38101;53.126;6.878;2023-04-01T07:52:53;11.20;99.90
52103;DHT22;38101;53.126;6.878;2023-04-01T07:56:10;11.20;99.90
52103;DHT22;38101;53.126;6.878;2023-04-01T08:01:05;11.30;99.90
52103;DHT22;38101;53.126;6.878;2023-04-01T08:06:29;11.30;99.90
52103;DHT22;38101;53.126;6.878;2023-04-01T08:12:12;11.30;99.90
52103;DHT22;38101;53.126;6.878;2023-04-01T08:15:03;11.30;99.90
52103;DHT22;38101;53.126;6.878;2023-04-01T08:22:51;11.40;99.90
52103;DHT22;38101;53.126;6.878;2023-04-01T08:25:22;11.40;99.90
52103;DHT22;38101;53.126;6.878;2023-04-01T08:31:12;11.50;99.90
52103;DHT22;38101;53.126;6.878;2023-04-01T08:33:31;11.50;99.90
52103;DHT22;38101;53.126;6.878;2023-04-01T08:39:02;11.50;99.90
52103;DHT22;38101;53.126;6.878;2023-04-01T08:44:34;11.50;99.90
52103;DHT22;38101;53.126;6.878;2023-04-01T08:50:25;11.60;99.90
52103;DHT22;38101;53.126;6.878;2023-04-01T08:55:37;11.60;99.90
52103;DHT22;38101;53.126;6.878;2023-04-01T09:09:09;11.70;99.90
52103;DHT22;38101;53.126;6.878;2023-04-01T09:14:26;11.70;99.90
52103;DHT22;38101;53.126;6.878;2023-04-01T09:20:19;11.70;99.90
52103;DHT22;38101;53.126;6.878;2023-04-01T09:25:50;11.70;99.90
52103;DHT22;38101;53.126;6.878;2023-04-01T09:28:59;11.60;99.90
52103;DHT22;38101;53.126;6.878;2023-04-01T09:37:35;11.40;99.90
52103;DHT22;38101;53.126;6.878;2023-04-01T09:40:54;11.40;99.90
52103;DHT22;38101;53.126;6.878;2023-04-01T09:51:24;11.10;99.90
52103;DHT22;38101;53.126;6.878;2023-04-01T09:54:56;11.10;99.90
52103;DHT22;38101;53.126;6.878;2023-04-01T09:59:38;11.00;99.90
52103;DHT22;38101;53.126;6.878;2023-04-01T10:08:17;11.10;99.90
52103;DHT22;38101;53.126;6.878;2023-04-01T10:11:21;11.10;99.90
52103;DHT22;38101;53.126;6.878;2023-04-01T10:14:11;11.20;99.90
52103;DHT22;38101;53.126;6.878;2023-04-01T10:22:39;11.10;99.90
52103;DHT22;38101;53.126;6.878;2023-04-01T10:27:58;11.10;99.90
52103;DHT22;38101;53.126;6.878;2023-04-01T10:36:34;11.20;99.90
52103;DHT22;38101;53.126;6.878;2023-04-01T10:53:20;11.10;99.90
52103;DHT22;38101;53.126;6.878;2023-04-01T11:04:42;11.10;99.90
52103;DHT22;38101;53.126;6.878;2023-04-01T11:27:25;11.20;99.90
52103;DHT22;38101;53.126;6.878;2023-04-01T11:35:49;11.20;99.90
52103;DHT22;38101;53.126;6.878;2023-04-01T11:41:25;11.20;99.90
52103;DHT22;38101;53.126;6.878;2023-04-01T11:46:40;11.40;99.90
52103;DHT22;38101;53.126;6.878;2023-04-01T11:49:36;11.40;99.90
52103;DHT22;38101;53.126;6.878;2023-04-01T12:00:39;11.50;99.90
52103;DHT22;38101;53.126;6.878;2023-04-01T12:06:32;11.50;99.90
52103;DHT22;38101;53.126;6.878;2023-04-01T12:17:49;11.40;99.90
52103;DHT22;38101;53.126;6.878;2023-04-01T12:20:38;11.40;99.90
52103;DHT22;38101;53.126;6.878;2023-04-01T12:34:00;11.40;99.90
52103;DHT22;38101;53.126;6.878;2023-04-01T12:39:42;11.40;99.90
52103;DHT22;38101;53.126;6.878;2023-04-01T12:45:00;11.40;99.90
52103;DHT22;38101;53.126;6.878;2023-04-01T12:55:51;11.30;99.90
52103;DHT22;38101;53.126;6.878;2023-04-01T13:09:45;11.20;99.90
52103;DHT22;38101;53.126;6.878;2023-04-01T13:29:23;10.80;99.90
52103;DHT22;38101;53.126;6.878;2023-04-01T13:31:59;10.80;99.90
52103;DHT22;38101;53.126;6.878;2023-04-01T13:41:12;10.70;99.90
52103;DHT22;38101;53.126;6.878;2023-04-01T13:43:22;10.70;99.90
52103;DHT22;38101;53.126;6.878;2023-04-01T13:51:25;10.60;99.90
52103;DHT22;38101;53.126;6.878;2023-04-01T13:54:25;10.50;99.90
52103;DHT22;38101;53.126;6.878;2023-04-01T13:57:27;10.50;99.90
52103;DHT22;38101;53.126;6.878;2023-04-01T14:02:44;10.50;99.90
52103;DHT22;38101;53.126;6.878;2023-04-01T14:11:08;10.60;99.90
52103;DHT22;38101;53.126;6.878;2023-04-01T14:27:17;10.40;99.90
52103;DHT22;38101;53.126;6.878;2023-04-01T14:33:15;10.40;99.90
52103;DHT22;38101;53.126;6.878;2023-04-01T14:36:10;10.30;99.90
52103;DHT22;38101;53.126;6.878;2023-04-01T14:42:03;10.20;99.90
52103;DHT22;38101;53.126;6.878;2023-04-01T14:50:09;10.20;99.90
52103;DHT22;38101;53.126;6.878;2023-04-01T14:52:44;10.10;99.90
52103;DHT22;38101;53.126;6.878;2023-04-01T15:03:32;10.00;99.90
52103;DHT22;38101;53.126;6.878;2023-04-01T15:06:35;10.00;99.90
52103;DHT22;38101;53.126;6.878;2023-04-01T15:12:01;10.00;99.90
52103;DHT22;38101;53.126;6.878;2023-04-01T15:26:12;9.80;99.90
52103;DHT22;38101;53.126;6.878;2023-04-01T15:39:14;9.50;99.90
52103;DHT22;38101;53.126;6.878;2023-04-01T15:42:48;9.50;99.90
52103;DHT22;38101;53.126;6.878;2023-04-01T15:45:03;9.50;99.90
52103;DHT22;38101;53.126;6.878;2023-04-01T15:47:37;9.40;99.90
52103;DHT22;38101;53.126;6.878;2023-04-01T15:53:03;9.40;99.90
52103;DHT22;38101;53.126;6.878;2023-04-01T16:09:07;9.20;99.90
52103;DHT22;38101;53.126;6.878;2023-04-01T16:23:00;9.00;99.90
52103;DHT22;38101;53.126;6.878;2023-04-01T16:25:40;9.00;99.90
52103;DHT22;38101;53.126;6.878;2023-04-01T16:28:15;9.10;99.90
52103;DHT22;38101;53.126;6.878;2023-04-01T16:30:58;9.00;99.90
52103;DHT22;38101;53.126;6.878;2023-04-01T16:36:30;9.00;99.90
52103;DHT22;38101;53.126;6.878;2023-04-01T16:39:32;9.00;99.90
52103;DHT22;38101;53.126;6.878;2023-04-01T16:45:15;9.00;99.90
52103;DHT22;38101;53.126;6.878;2023-04-01T16:47:53;8.90;99.90
52103;DHT22;38101;53.126;6.878;2023-04-01T16:50:28;8.90;99.90
52103;DHT22;38101;53.126;6.878;2023-04-01T16:58:36;8.80;99.90
52103;DHT22;38101;53.126;6.878;2023-04-01T17:01:20;8.80;99.90
52103;DHT22;38101;53.126;6.878;2023-04-01T17:03:52;8.80;99.90
52103;DHT22;38101;53.126;6.878;2023-04-01T17:06:36;8.70;99.90
52103;DHT22;38101;53.126;6.878;2023-04-01T17:09:31;8.70;99.90
52103;DHT22;38101;53.126;6.878;2023-04-01T17:12:05;8.60;99.90
52103;DHT22;38101;53.126;6.878;2023-04-01T17:14:59;8.50;99.90
52103;DHT22;38101;53.126;6.878;2023-04-01T17:18:04;8.40;99.90
52103;DHT22;38101;53.126;6.878;2023-04-01T17:23:51;8.40;99.90
52103;DHT22;38101;53.126;6.878;2023-04-01T17:32:11;8.30;99.90
52103;DHT22;38101;53.126;6.878;2023-04-01T17:43:17;8.20;99.90
52103;DHT22;38101;53.126;6.878;2023-04-01T17:48:38;8.20;99.90
52103;DHT22;38101;53.126;6.878;2023-04-01T18:02:43;8.10;99.90
52103;DHT22;38101;53.126;6.878;2023-04-01T18:19:22;7.90;99.90
52103;DHT22;38101;53.126;6.878;2023-04-01T18:22:06;7.80;99.90
52103;DHT22;38101;53.126;6.878;2023-04-01T18:24:45;7.80;99.90
52103;DHT22;38101;53.126;6.878;2023-04-01T18:27:22;7.80;99.90
52103;DHT22;38101;53.126;6.878;2023-04-01T18:30:02;7.80;99.90
52103;DHT22;38101;53.126;6.878;2023-04-01T18:32:42;7.80;99.90
52103;DHT22;38101;53.126;6.878;2023-04-01T18:35:22;7.70;99.90
52103;DHT22;38101;53.126;6.878;2023-04-01T18:38:12;7.70;99.90
52103;DHT22;38101;53.126;6.878;2023-04-01T18:40:49;7.70;99.90
52103;DHT22;38101;53.126;6.878;2023-04-01T18:43:34;7.70;99.90
52103;DHT22;38101;53.126;6.878;2023-04-01T18:46:24;7.70;99.90
52103;DHT22;38101;53.126;6.878;2023-04-01T18:51:53;7.60;99.90
52103;DHT22;38101;53.126;6.878;2023-04-01T18:54:47;7.60;99.90
52103;DHT22;38101;53.126;6.878;2023-04-01T18:57:17;7.60;99.90
52103;DHT22;38101;53.126;6.878;2023-04-01T18:59:51;7.60;99.90
52103;DHT22;38101;53.126;6.878;2023-04-01T19:05:00;7.60;99.90
52103;DHT22;38101;53.126;6.878;2023-04-01T19:20:56;7.50;99.90
52103;DHT22;38101;53.126;6.878;2023-04-01T19:26:27;7.40;99.90
52103;DHT22;38101;53.126;6.878;2023-04-01T19:34:31;7.30;99.90
52103;DHT22;38101;53.126;6.878;2023-04-01T19:48:11;7.20;99.90
52103;DHT22;38101;53.126;6.878;2023-04-01T19:53:48;7.10;99.90
52103;DHT22;38101;53.126;6.878;2023-04-01T19:56:21;7.10;99.90
52103;DHT22;38101;53.126;6.878;2023-04-01T19:59:18;7.00;99.90
52103;DHT22;38101;53.126;6.878;2023-04-01T20:04:30;7.00;99.90
52103;DHT22;38101;53.126;6.878;2023-04-01T20:07:19;7.00;99.90
52103;DHT22;38101;53.126;6.878;2023-04-01T20:12:47;6.90;99.90
52103;DHT22;38101;53.126;6.878;2023-04-01T20:15:36;6.90;99.90
52103;DHT22;38101;53.126;6.878;2023-04-01T20:18:39;6.90;99.90
52103;DHT22;38101;53.126;6.878;2023-04-01T20:21:03;6.90;99.90
52103;DHT22;38101;53.126;6.878;2023-04-01T20:26:09;6.90;99.90
52103;DHT22;38101;53.126;6.878;2023-04-01T20:28:43;6.90;99.90
52103;DHT22;38101;53.126;6.878;2023-04-01T20:31:35;6.90;99.90
52103;DHT22;38101;53.126;6.878;2023-04-01T20:34:19;6.90;99.90
52103;DHT22;38101;53.126;6.878;2023-04-01T20:36:58;6.90;99.90
52103;DHT22;38101;53.126;6.878;2023-04-01T20:53:05;6.80;99.90
52103;DHT22;38101;53.126;6.878;2023-04-01T21:05:11;6.80;99.90
52103;DHT22;38101;53.126;6.878;2023-04-01T21:07:53;6.80;99.90
52103;DHT22;38101;53.126;6.878;2023-04-01T21:10:37;6.70;99.90
52103;DHT22;38101;53.126;6.878;2023-04-01T21:13:27;6.80;99.90
52103;DHT22;38101;53.126;6.878;2023-04-01T21:18:53;6.80;99.90
52103;DHT22;38101;53.126;6.878;2023-04-01T21:24:55;6.80;99.90
52103;DHT22;38101;53.126;6.878;2023-04-01T21:27:52;6.80;99.90
52103;DHT22;38101;53.126;6.878;2023-04-01T21:57:51;6.50;99.90
52103;DHT22;38101;53.126;6.878;2023-04-01T22:00:48;6.50;99.90
52103;DHT22;38101;53.126;6.878;2023-04-01T22:06:16;6.40;99.90
52103;DHT22;38101;53.126;6.878;2023-04-01T22:13:55;6.40;99.90
52103;DHT22;38101;53.126;6.878;2023-04-01T22:16:47;6.40;99.90
52103;DHT22;38101;53.126;6.878;2023-04-01T22:25:45;6.30;99.90
52103;DHT22;38101;53.126;6.878;2023-04-01T22:28:09;6.30;99.90
52103;DHT22;38101;53.126;6.878;2023-04-01T22:30:50;6.20;99.90
52103;DHT22;38101;53.126;6.878;2023-04-01T22:33:28;6.20;99.90
52103;DHT22;38101;53.126;6.878;2023-04-01T22:42:11;6.20;99.90
52103;DHT22;38101;53.126;6.878;2023-04-01T22:48:36;6.10;99.90
52103;DHT22;38101;53.126;6.878;2023-04-01T22:51:05;6.10;99.90
52103;DHT22;38101;53.126;6.878;2023-04-01T22:53:37;6.00;99.90
52103;DHT22;38101;53.126;6.878;2023-04-01T22:56:20;6.00;99.90
52103;DHT22;38101;53.126;6.878;2023-04-01T22:58:55;6.00;99.90
52103;DHT22;38101;53.126;6.878;2023-04-01T23:01:28;6.00;99.90
52103;DHT22;38101;53.126;6.878;2023-04-01T23:03:58;6.00;99.90
52103;DHT22;38101;53.126;6.878;2023-04-01T23:06:31;6.00;99.90
52103;DHT22;38101;53.126;6.878;2023-04-01T23:14:49;6.00;99.90
52103;DHT22;38101;53.126;6.878;2023-04-01T23:20:41;5.90;99.90
52103;DHT22;38101;53.126;6.878;2023-04-01T23:26:24;5.70;99.90
52103;DHT22;38101;53.126;6.878;2023-04-01T23:28:57;5.70;99.90
52103;DHT22;38101;53.126;6.878;2023-04-01T23:36:46;5.60;99.90
52103;DHT22;38101;53.126;6.878;2023-04-01T23:42:15;5.60;99.90
52103;DHT22;38101;53.126;6.878;2023-04-01T23:44:46;5.50;99.90
52103;DHT22;38101;53.126;6.878;2023-04-01T23:47:17;5.50;99.90
52103;DHT22;38101;53.126;6.878;2023-04-01T23:49:56;5.50;99.90
52103;DHT22;38101;53.126;6.878;2023-04-01T23:52:30;5.50;99.90
52103;DHT22;38101;53.126;6.878;2023-04-01T23:54:58;5.50;99.90
52103;DHT22;38101;53.126;6.878;2023-04-01T23:57:33;5.40;99.90
